createdAt,value
2018-07-26T00:00:02.844Z,9.37
2018-07-26T00:02:32.358Z,9.80
2018-07-26T00:04:59.925Z,9.07
2018-07-26T00:07:27.456Z,9.10
2018-07-26T00:09:55.021Z,10.20
2018-07-26T00:12:22.587Z,9.57
2018-07-26T00:14:50.247Z,8.90
2018-07-26T00:17:17.779Z,8.55
2018-07-26T00:19:45.355Z,9.30
2018-07-26T00:22:12.888Z,8.47
2018-07-26T00:24:41.210Z,9.00
2018-07-26T00:27:08.748Z,9.43
2018-07-26T00:29:36.305Z,8.90
2018-07-26T00:32:04.802Z,10.77
2018-07-26T00:34:32.338Z,9.50
2018-07-26T00:36:59.898Z,8.53
2018-07-26T00:39:27.432Z,8.73
2018-07-26T00:41:54.990Z,8.50
2018-07-26T00:44:22.545Z,8.70
2018-07-26T00:46:50.091Z,9.43
2018-07-26T00:49:17.649Z,8.30
2018-07-26T00:51:46.927Z,9.00
2018-07-26T00:54:14.503Z,8.70
2018-07-26T00:56:42.074Z,8.77
2018-07-26T00:59:09.629Z,8.17
2018-07-26T01:01:37.164Z,7.83
2018-07-26T01:04:04.697Z,8.00
2018-07-26T01:06:32.260Z,8.50
2018-07-26T01:08:59.794Z,8.87
2018-07-26T01:11:28.418Z,8.80
2018-07-26T01:13:56.726Z,8.53
2018-07-26T01:16:26.297Z,8.33
2018-07-26T01:18:53.826Z,8.77
2018-07-26T01:21:21.364Z,8.50
2018-07-26T01:23:48.928Z,7.93
2018-07-26T01:26:16.487Z,7.93
2018-07-26T01:28:44.046Z,7.80
2018-07-26T01:31:11.581Z,8.00
2018-07-26T01:33:39.140Z,9.13
2018-07-26T01:36:06.701Z,8.07
2018-07-26T01:38:34.225Z,8.83
2018-07-26T01:41:03.734Z,7.43
2018-07-26T01:43:31.269Z,7.67
2018-07-26T01:45:58.826Z,8.30
2018-07-26T01:48:27.333Z,8.00
2018-07-26T01:50:54.856Z,7.33
2018-07-26T01:53:22.443Z,7.63
2018-07-26T01:55:49.997Z,7.10
2018-07-26T01:58:17.674Z,7.77
2018-07-26T02:00:45.230Z,7.07
2018-07-26T02:03:12.785Z,7.77
2018-07-26T02:05:40.345Z,7.97
2018-07-26T02:08:07.873Z,7.37
2018-07-26T02:10:36.197Z,7.77
2018-07-26T02:13:03.728Z,7.80
2018-07-26T02:15:33.265Z,8.20
2018-07-26T02:18:00.793Z,7.20
2018-07-26T02:20:28.357Z,7.73
2018-07-26T02:22:55.892Z,7.40
2018-07-26T02:25:23.441Z,7.80
2018-07-26T02:27:51.002Z,8.27
2018-07-26T02:30:18.543Z,8.37
2018-07-26T02:32:48.294Z,8.37
2018-07-26T02:35:15.929Z,7.73
2018-07-26T02:37:43.497Z,8.00
2018-07-26T02:40:11.062Z,7.60
2018-07-26T02:42:40.570Z,7.97
2018-07-26T02:45:09.163Z,7.57
2018-07-26T02:47:36.718Z,8.23
2018-07-26T02:50:04.273Z,8.23
2018-07-26T02:52:31.814Z,7.60
2018-07-26T02:55:01.319Z,8.40
2018-07-26T02:57:28.889Z,7.50
2018-07-26T02:59:57.391Z,7.77
2018-07-26T03:02:24.969Z,8.23
2018-07-26T03:04:52.535Z,8.97
2018-07-26T03:07:20.916Z,9.00
2018-07-26T03:09:48.418Z,7.20
2018-07-26T03:12:15.981Z,8.60
2018-07-26T03:14:44.472Z,8.60
2018-07-26T03:17:12.033Z,8.50
2018-07-26T03:19:39.566Z,8.10
2018-07-26T03:22:07.133Z,8.10
2018-07-26T03:24:34.674Z,8.23
2018-07-26T03:27:02.336Z,7.90
2018-07-26T03:29:29.872Z,8.60
2018-07-26T03:31:57.406Z,7.80
2018-07-26T03:34:24.973Z,8.60
2018-07-26T03:36:52.533Z,9.00
2018-07-26T03:39:20.097Z,8.10
2018-07-26T03:41:47.632Z,9.03
2018-07-26T03:44:15.206Z,8.87
2018-07-26T03:46:42.777Z,9.50
2018-07-26T03:49:10.359Z,8.70
2018-07-26T03:51:37.902Z,9.10
2018-07-26T03:54:05.457Z,8.97
2018-07-26T03:56:33.025Z,9.60
2018-07-26T03:59:00.555Z,9.50
2018-07-26T04:01:28.233Z,8.90
2018-07-26T04:03:55.765Z,9.00
2018-07-26T04:06:23.341Z,8.63
2018-07-26T04:08:50.872Z,9.10
2018-07-26T04:11:18.452Z,9.30
2018-07-26T04:13:45.992Z,9.27
2018-07-26T04:16:13.575Z,7.63
2018-07-26T04:18:41.143Z,8.53
2018-07-26T04:21:08.677Z,9.63
2018-07-26T04:23:38.185Z,9.10
2018-07-26T04:26:05.769Z,9.10
2018-07-26T04:28:33.355Z,9.97
2018-07-26T04:31:01.668Z,9.23
2018-07-26T04:33:29.216Z,10.33
2018-07-26T04:35:56.921Z,10.90
2018-07-26T04:38:24.460Z,9.30
2018-07-26T04:40:52.031Z,8.50
2018-07-26T04:43:19.594Z,8.70
2018-07-26T04:45:47.126Z,9.10
2018-07-26T04:48:14.693Z,8.80
2018-07-26T04:50:43.221Z,9.13
2018-07-26T04:53:11.541Z,9.23
2018-07-26T04:55:39.073Z,8.73
2018-07-26T04:58:08.566Z,9.23
2018-07-26T05:00:36.100Z,8.50
2018-07-26T05:03:03.666Z,8.30
2018-07-26T05:05:31.222Z,8.47
2018-07-26T05:08:01.522Z,8.70
2018-07-26T05:10:29.053Z,8.60
2018-07-26T05:12:57.541Z,9.50
2018-07-26T05:15:25.092Z,8.53
2018-07-26T05:17:52.625Z,8.87
2018-07-26T05:20:20.189Z,8.80
2018-07-26T05:22:47.744Z,8.20
2018-07-26T05:25:15.280Z,8.50
2018-07-26T05:27:43.661Z,8.53
2018-07-26T05:30:11.189Z,8.13
2018-07-26T05:32:38.755Z,8.40
2018-07-26T05:35:06.309Z,8.43
2018-07-26T05:37:33.895Z,8.53
2018-07-26T05:40:01.446Z,9.10
2018-07-26T05:42:29.009Z,9.40
2018-07-26T05:44:56.542Z,9.60
2018-07-26T05:47:24.106Z,8.53
2018-07-26T05:49:51.706Z,8.63
2018-07-26T05:52:20.202Z,9.17
2018-07-26T05:54:47.756Z,9.73
2018-07-26T05:57:15.294Z,9.40
2018-07-26T05:59:42.944Z,9.73
2018-07-26T06:02:11.783Z,8.90
2018-07-26T06:04:39.348Z,8.40
2018-07-26T06:07:06.880Z,8.27
2018-07-26T06:09:34.503Z,8.07
2018-07-26T06:12:02.761Z,8.50
2018-07-26T06:14:31.062Z,7.10
2018-07-26T06:16:58.617Z,7.20
2018-07-26T06:19:27.107Z,7.53
2018-07-26T06:21:54.667Z,7.03
2018-07-26T06:24:22.227Z,6.27
2018-07-26T06:26:49.762Z,7.17
2018-07-26T06:29:17.323Z,6.50
2018-07-26T06:31:44.885Z,6.73
2018-07-26T06:34:14.401Z,6.97
2018-07-26T06:36:42.892Z,7.30
2018-07-26T06:39:12.381Z,7.03
2018-07-26T06:41:40.874Z,7.90
2018-07-26T06:44:08.429Z,7.57
2018-07-26T06:46:35.965Z,7.87
2018-07-26T06:49:05.483Z,6.90
2018-07-26T06:51:33.061Z,7.53
2018-07-26T06:54:00.612Z,6.90
2018-07-26T06:56:28.148Z,7.60
2018-07-26T06:58:55.706Z,7.00
2018-07-26T07:01:23.266Z,7.40
2018-07-26T07:03:50.829Z,7.67
2018-07-26T07:06:18.360Z,8.00
2018-07-26T07:08:45.921Z,6.87
2018-07-26T07:11:13.589Z,7.63
2018-07-26T07:13:41.159Z,7.80
2018-07-26T07:16:08.700Z,6.87
2018-07-26T07:18:36.301Z,6.63
2018-07-26T07:21:05.760Z,7.20
2018-07-26T07:23:33.294Z,7.50
2018-07-26T07:26:00.870Z,6.83
2018-07-26T07:28:28.405Z,7.77
2018-07-26T07:30:55.968Z,7.40
2018-07-26T07:33:23.498Z,7.20
2018-07-26T07:35:51.821Z,7.40
2018-07-26T07:38:19.361Z,6.40
2018-07-26T07:40:46.932Z,7.00
2018-07-26T07:43:14.463Z,7.13
2018-07-26T07:45:42.037Z,7.40
2018-07-26T07:48:09.598Z,7.13
2018-07-26T07:50:37.909Z,6.37
2018-07-26T07:53:05.485Z,6.27
2018-07-26T07:55:33.048Z,6.83
2018-07-26T07:58:03.337Z,6.33
2018-07-26T08:00:30.868Z,6.10
2018-07-26T08:02:58.397Z,6.37
2018-07-26T08:05:26.042Z,6.27
2018-07-26T08:07:53.505Z,5.90
2018-07-26T08:10:21.821Z,3.73
2018-07-26T08:12:49.349Z,3.90
2018-07-26T08:15:16.905Z,4.25
2018-07-26T08:17:45.368Z,3.97
2018-07-26T08:20:12.932Z,3.53
2018-07-26T08:22:40.461Z,3.97
2018-07-26T08:25:08.793Z,3.73
2018-07-26T08:27:36.316Z,3.83
2018-07-26T08:30:03.877Z,3.60
2018-07-26T08:32:31.428Z,3.70
2018-07-26T08:34:59.773Z,3.80
2018-07-26T08:37:27.309Z,3.87
2018-07-26T08:39:54.861Z,3.87
2018-07-26T08:42:22.424Z,4.00
2018-07-26T08:44:49.980Z,3.40
2018-07-26T08:47:17.542Z,5.23
2018-07-26T08:49:45.101Z,5.87
2018-07-26T08:52:12.708Z,5.80
2018-07-26T08:54:40.225Z,6.60
2018-07-26T08:57:07.787Z,5.57
2018-07-26T08:59:36.275Z,5.20
2018-07-26T09:02:03.833Z,6.33
2018-07-26T09:04:31.369Z,5.43
2018-07-26T09:06:59.940Z,5.43
2018-07-26T09:09:27.465Z,4.73
2018-07-26T09:11:55.030Z,4.60
2018-07-26T09:14:22.565Z,3.60
2018-07-26T09:16:50.097Z,5.00
2018-07-26T09:19:17.649Z,5.30
2018-07-26T09:21:45.189Z,5.70
2018-07-26T09:24:12.750Z,5.00
2018-07-26T09:26:40.285Z,4.43
2018-07-26T09:29:07.848Z,5.50
2018-07-26T09:31:36.357Z,5.00
2018-07-26T09:34:03.915Z,4.30
2018-07-26T09:36:31.473Z,2.90
2018-07-26T09:38:59.028Z,2.77
2018-07-26T09:41:26.554Z,2.47
2018-07-26T09:43:56.052Z,2.50
2018-07-26T09:46:23.576Z,2.30
2018-07-26T09:48:51.134Z,2.87
2018-07-26T09:51:20.662Z,4.13
2018-07-26T09:53:48.216Z,4.43
2018-07-26T09:56:15.837Z,4.60
2018-07-26T09:58:43.380Z,4.10
2018-07-26T10:01:11.900Z,4.23
2018-07-26T10:03:39.424Z,4.10
2018-07-26T10:06:06.981Z,4.10
2018-07-26T10:08:35.273Z,3.40
2018-07-26T10:11:02.817Z,3.40
2018-07-26T10:13:33.113Z,3.60
2018-07-26T10:16:00.747Z,4.10
2018-07-26T10:18:28.248Z,5.00
2018-07-26T10:20:56.552Z,4.97
2018-07-26T10:23:24.107Z,4.83
2018-07-26T10:25:51.668Z,4.90
2018-07-26T10:28:19.236Z,5.57
2018-07-26T10:30:46.793Z,4.40
2018-07-26T10:33:14.350Z,4.30
2018-07-26T10:35:41.888Z,3.70
2018-07-26T10:38:11.372Z,3.57
2018-07-26T10:40:38.905Z,4.90
2018-07-26T10:43:06.478Z,4.67
2018-07-26T10:45:34.803Z,4.63
2018-07-26T10:48:02.360Z,5.30
2018-07-26T10:50:29.892Z,4.50
2018-07-26T10:52:57.430Z,4.80
2018-07-26T10:55:24.981Z,4.73
2018-07-26T10:57:53.616Z,5.00
2018-07-26T11:00:21.230Z,4.80
2018-07-26T11:02:48.728Z,4.60
2018-07-26T11:05:16.297Z,4.50
2018-07-26T11:07:43.830Z,5.23
2018-07-26T11:10:12.318Z,5.23
2018-07-26T11:12:39.872Z,4.40
2018-07-26T11:15:07.444Z,4.50
2018-07-26T11:17:36.920Z,4.50
2018-07-26T11:20:04.465Z,4.60
2018-07-26T11:22:32.134Z,2.80
2018-07-26T11:24:59.689Z,2.27
2018-07-26T11:27:27.321Z,2.07
2018-07-26T11:29:54.984Z,1.60
2018-07-26T11:32:22.541Z,2.37
2018-07-26T11:34:50.052Z,1.80
2018-07-26T11:37:18.545Z,1.70
2018-07-26T11:39:46.869Z,1.97
2018-07-26T11:42:14.422Z,1.90
2018-07-26T11:44:42.925Z,1.90
2018-07-26T11:47:10.492Z,1.80
2018-07-26T11:49:38.022Z,1.70
2018-07-26T11:52:05.550Z,1.60
2018-07-26T11:54:33.106Z,1.60
2018-07-26T11:57:01.445Z,1.30
2018-07-26T11:59:29.000Z,1.33
2018-07-26T12:01:56.537Z,1.50
2018-07-26T12:04:24.194Z,1.70
2018-07-26T12:06:51.729Z,1.80
2018-07-26T12:09:19.284Z,1.40
2018-07-26T12:11:47.800Z,1.30
2018-07-26T12:14:17.299Z,1.70
2018-07-26T12:16:44.845Z,1.60
2018-07-26T12:19:12.372Z,1.60
2018-07-26T12:21:39.935Z,1.50
2018-07-26T12:24:07.465Z,1.70
2018-07-26T12:26:35.025Z,1.50
2018-07-26T12:29:02.733Z,1.77
2018-07-26T12:31:30.261Z,1.67
2018-07-26T12:33:57.788Z,1.60
2018-07-26T12:36:27.336Z,1.60
2018-07-26T12:38:54.863Z,1.70
2018-07-26T12:41:22.421Z,1.87
2018-07-26T12:43:50.742Z,1.97
2018-07-26T12:46:19.293Z,1.73
2018-07-26T12:48:46.870Z,1.80
2018-07-26T12:51:14.404Z,2.10
2018-07-26T12:53:43.892Z,1.90
2018-07-26T12:56:11.437Z,2.00
2018-07-26T12:58:38.986Z,1.97
2018-07-26T13:01:06.553Z,1.80
2018-07-26T13:03:34.095Z,2.20
2018-07-26T13:06:01.665Z,1.73
2018-07-26T13:08:29.226Z,1.60
2018-07-26T13:10:58.752Z,1.63
2018-07-26T13:13:26.286Z,1.60
2018-07-26T13:15:53.856Z,1.63
2018-07-26T13:18:22.198Z,1.70
2018-07-26T13:20:49.738Z,1.57
2018-07-26T13:23:17.376Z,1.60
2018-07-26T13:25:44.909Z,1.83
2018-07-26T13:28:13.224Z,1.60
2018-07-26T13:30:40.777Z,1.80
2018-07-26T13:33:10.306Z,1.80
2018-07-26T13:35:37.837Z,1.73
2018-07-26T13:38:05.361Z,1.70
2018-07-26T13:40:32.930Z,1.77
2018-07-26T13:43:00.467Z,1.50
2018-07-26T13:45:28.794Z,1.50
2018-07-26T13:47:58.288Z,1.50
2018-07-26T13:50:25.813Z,1.77
2018-07-26T13:52:53.349Z,1.40
2018-07-26T13:55:21.664Z,1.50
2018-07-26T13:57:49.194Z,1.47
2018-07-26T14:00:18.690Z,1.83
2018-07-26T14:02:46.245Z,1.70
2018-07-26T14:05:14.532Z,1.70
2018-07-26T14:07:44.068Z,1.60
2018-07-26T14:10:11.598Z,1.83
2018-07-26T14:12:39.158Z,1.70
2018-07-26T14:15:07.640Z,1.50
2018-07-26T14:17:35.213Z,1.60
2018-07-26T14:20:02.785Z,2.00
2018-07-26T14:22:30.358Z,2.17
2018-07-26T14:24:57.893Z,1.77
2018-07-26T14:27:25.434Z,1.43
2018-07-26T14:29:52.993Z,2.27
2018-07-26T14:32:20.531Z,1.70
2018-07-26T14:34:48.064Z,1.50
2018-07-26T14:37:16.394Z,1.67
2018-07-26T14:42:22.889Z,1.45
2018-07-26T14:44:50.459Z,1.23
2018-07-26T14:47:17.997Z,1.50
2018-07-26T14:49:45.532Z,1.77
2018-07-26T14:52:14.117Z,1.30
2018-07-26T14:54:41.668Z,1.55
2018-07-26T14:57:09.202Z,1.25
2018-07-26T14:59:36.795Z,1.40
2018-07-26T15:02:04.322Z,1.65
2018-07-26T15:04:31.882Z,1.50
2018-07-26T15:07:09.317Z,1.77
2018-07-26T15:09:37.874Z,1.60
2018-07-26T15:12:05.407Z,1.50
2018-07-26T15:14:33.904Z,1.98
2018-07-26T15:17:01.474Z,1.62
2018-07-26T15:19:29.012Z,1.70
2018-07-26T15:21:56.584Z,1.90
2018-07-26T15:24:24.133Z,1.83
2018-07-26T15:26:51.701Z,1.80
2018-07-26T15:29:19.234Z,1.77
2018-07-26T15:31:46.760Z,1.55
2018-07-26T15:34:14.324Z,1.60
2018-07-26T15:36:41.976Z,1.60
2018-07-26T15:39:11.532Z,2.10
2018-07-26T15:41:39.069Z,1.62
2018-07-26T15:44:06.625Z,1.75
2018-07-26T15:46:34.161Z,1.60
2018-07-26T15:49:01.688Z,2.05
2018-07-26T15:51:29.346Z,1.50
2018-07-26T15:53:56.852Z,1.70
2018-07-26T15:56:24.405Z,1.70
2018-07-26T15:58:51.967Z,1.73
2018-07-26T16:01:19.580Z,2.30
2018-07-26T16:03:49.157Z,1.85
2018-07-26T16:06:16.716Z,2.00
2018-07-26T16:08:44.244Z,1.60
2018-07-26T16:11:11.816Z,1.70
2018-07-26T16:13:39.396Z,1.90
2018-07-26T16:16:06.933Z,1.60
2018-07-26T16:18:34.485Z,1.73
2018-07-26T16:21:02.996Z,2.17
2018-07-26T16:23:30.541Z,1.80
2018-07-26T16:25:58.110Z,2.45
2018-07-26T16:28:28.532Z,1.80
2018-07-26T16:30:56.130Z,2.00
2018-07-26T16:33:23.664Z,2.17
2018-07-26T16:35:51.996Z,1.80
2018-07-26T16:38:20.519Z,2.15
2018-07-26T16:40:48.061Z,3.47
2018-07-26T16:43:16.141Z,2.10
2018-07-26T16:45:43.705Z,2.15
2018-07-26T16:48:12.029Z,2.05
2018-07-26T16:50:39.572Z,2.10
2018-07-26T16:53:07.137Z,2.60
2018-07-26T16:55:34.675Z,1.87
2018-07-26T16:58:02.233Z,2.12
2018-07-26T17:00:30.593Z,1.90
2018-07-26T17:02:58.130Z,2.45
2018-07-26T17:05:25.684Z,2.50
2018-07-26T17:07:53.228Z,2.60
2018-07-26T17:10:20.792Z,2.83
2018-07-26T17:12:48.330Z,2.47
2018-07-26T17:15:16.855Z,8.23
2018-07-26T17:17:44.400Z,2.30
2018-07-26T17:20:11.941Z,2.43
2018-07-26T17:22:40.486Z,2.20
2018-07-26T17:25:08.013Z,2.30
2018-07-26T17:27:35.687Z,4.67
2018-07-26T17:30:03.232Z,2.60
2018-07-26T17:32:30.866Z,3.50
2018-07-26T17:34:58.369Z,4.13
2018-07-26T17:37:25.902Z,2.77
2018-07-26T17:39:53.465Z,2.50
2018-07-26T17:42:21.006Z,3.03
2018-07-26T17:44:48.569Z,3.30
2018-07-26T17:47:17.073Z,2.70
2018-07-26T17:49:44.630Z,2.30
2018-07-26T17:52:13.198Z,2.57
2018-07-26T17:54:40.761Z,14.70
2018-07-26T17:57:08.298Z,2.70
2018-07-26T17:59:35.837Z,2.30
2018-07-26T18:02:05.396Z,2.60
2018-07-26T18:04:32.963Z,2.60
2018-07-26T18:07:00.513Z,2.43
2018-07-26T18:09:28.088Z,5.50
2018-07-26T18:11:55.615Z,2.07
2018-07-26T18:14:23.183Z,2.40
2018-07-26T18:16:50.745Z,2.50
2018-07-26T18:19:18.274Z,2.70
2018-07-26T18:21:46.796Z,2.57
2018-07-26T18:24:14.320Z,2.90
2018-07-26T18:26:41.875Z,2.50
2018-07-26T18:29:09.441Z,3.30
2018-07-26T18:31:37.097Z,2.97
2018-07-26T18:34:04.583Z,2.70
2018-07-26T18:36:32.121Z,2.43
2018-07-26T18:38:59.677Z,2.90
2018-07-26T18:41:27.227Z,31.00
2018-07-26T18:43:54.849Z,2.17
2018-07-26T18:46:22.349Z,3.10
2018-07-26T18:48:49.877Z,2.77
2018-07-26T18:51:17.441Z,2.90
2018-07-26T18:53:44.977Z,2.97
2018-07-26T18:56:12.560Z,2.73
2018-07-26T18:58:40.089Z,2.77
2018-07-26T19:01:07.836Z,2.97
2018-07-26T19:03:36.439Z,3.10
2018-07-26T19:06:03.972Z,3.90
2018-07-26T19:08:32.317Z,2.97
2018-07-26T19:11:00.018Z,3.70
2018-07-26T19:13:28.077Z,3.00
2018-07-26T19:15:55.612Z,2.83
2018-07-26T19:18:25.104Z,4.30
2018-07-26T19:20:52.666Z,3.10
2018-07-26T19:23:20.700Z,3.50
2018-07-26T19:25:48.252Z,2.83
2018-07-26T19:28:15.788Z,4.90
2018-07-26T19:30:43.463Z,5.30
2018-07-26T19:33:11.092Z,4.20
2018-07-26T19:35:38.680Z,4.60
2018-07-26T19:38:06.237Z,4.63
2018-07-26T19:40:33.769Z,4.30
2018-07-26T19:43:01.296Z,3.83
2018-07-26T19:45:28.858Z,4.00
2018-07-26T19:47:56.393Z,3.77
2018-07-26T19:50:23.944Z,3.73
2018-07-26T19:52:51.493Z,3.83
2018-07-26T19:55:19.030Z,3.57
2018-07-26T19:57:46.589Z,7.73
2018-07-26T20:00:14.123Z,4.57
2018-07-26T20:02:41.677Z,4.63
2018-07-26T20:05:10.220Z,3.23
2018-07-26T20:07:37.779Z,2.90
2018-07-26T20:10:05.325Z,4.53
2018-07-26T20:12:32.864Z,3.30
2018-07-26T20:15:00.425Z,3.70
2018-07-26T20:17:27.955Z,3.53
2018-07-26T20:19:55.519Z,3.67
2018-07-26T20:22:23.054Z,3.73
2018-07-26T20:24:50.615Z,3.90
2018-07-26T20:27:18.154Z,3.77
2018-07-26T20:29:45.733Z,3.80
2018-07-26T20:32:13.310Z,3.70
2018-07-26T20:34:40.887Z,4.10
2018-07-26T20:37:08.445Z,3.43
2018-07-26T20:39:35.985Z,3.43
2018-07-26T20:42:03.522Z,3.53
2018-07-26T20:44:31.088Z,3.90
2018-07-26T20:46:58.649Z,3.73
2018-07-26T20:49:26.256Z,13.07
2018-07-26T20:51:54.597Z,4.10
2018-07-26T20:54:22.176Z,3.67
2018-07-26T20:56:49.722Z,12.90
2018-07-26T20:59:17.278Z,4.17
2018-07-26T21:01:44.866Z,4.60
2018-07-26T21:04:13.188Z,8.73
2018-07-26T21:06:40.852Z,4.77
2018-07-26T21:09:08.393Z,4.30
2018-07-26T21:11:35.982Z,4.27
2018-07-26T21:14:03.523Z,4.37
2018-07-26T21:16:31.091Z,4.00
2018-07-26T21:18:58.700Z,3.77
2018-07-26T21:21:26.275Z,4.27
2018-07-26T21:23:53.845Z,3.80
2018-07-26T21:26:21.377Z,4.10
2018-07-26T21:28:48.953Z,4.40
2018-07-26T21:31:16.621Z,4.47
2018-07-26T21:33:44.199Z,3.70
2018-07-26T21:36:11.745Z,4.23
2018-07-26T21:38:39.283Z,3.57
2018-07-26T21:41:06.850Z,5.33
2018-07-26T21:43:34.431Z,4.47
2018-07-26T21:46:02.594Z,3.77
2018-07-26T21:48:30.412Z,4.80
2018-07-26T21:50:57.969Z,4.53
2018-07-26T21:53:25.547Z,4.60
2018-07-26T21:55:53.113Z,4.10
2018-07-26T21:58:20.650Z,4.40
2018-07-26T22:00:48.214Z,4.30
2018-07-26T22:03:15.769Z,4.13
2018-07-26T22:05:43.299Z,4.80
2018-07-26T22:08:11.613Z,3.93
2018-07-26T22:10:39.141Z,4.50
2018-07-26T22:13:07.460Z,4.43
2018-07-26T22:15:35.020Z,4.00
2018-07-26T22:18:02.573Z,4.77
2018-07-26T22:20:30.205Z,3.90
2018-07-26T22:22:57.733Z,3.80
2018-07-26T22:25:25.289Z,4.67
2018-07-26T22:27:53.589Z,4.30
2018-07-26T22:30:21.159Z,3.93
2018-07-26T22:32:48.688Z,3.80
2018-07-26T22:35:16.981Z,4.10
2018-07-26T22:37:44.564Z,4.77
2018-07-26T22:40:12.145Z,4.60
2018-07-26T22:42:39.705Z,4.00
2018-07-26T22:45:07.841Z,4.00
2018-07-26T22:47:37.325Z,4.60
2018-07-26T22:50:04.981Z,3.73
2018-07-26T22:52:33.462Z,4.20
2018-07-26T22:55:01.016Z,3.97
2018-07-26T22:57:28.544Z,4.67
2018-07-26T22:59:56.102Z,4.27
2018-07-26T23:02:24.397Z,4.00
2018-07-26T23:04:53.892Z,4.83
2018-07-26T23:07:21.425Z,4.30
2018-07-26T23:09:48.983Z,4.00
2018-07-26T23:12:16.557Z,4.07
2018-07-26T23:14:44.101Z,4.43
2018-07-26T23:17:11.672Z,4.33
2018-07-26T23:19:39.973Z,3.97
2018-07-26T23:22:07.526Z,4.10
2018-07-26T23:24:35.140Z,4.23
2018-07-26T23:27:03.713Z,3.93
2018-07-26T23:29:31.244Z,4.40
2018-07-26T23:31:58.768Z,4.00
2018-07-26T23:34:26.324Z,4.43
2018-07-26T23:36:53.976Z,4.27
2018-07-26T23:39:23.469Z,4.07
2018-07-26T23:41:51.953Z,4.07
2018-07-26T23:44:19.505Z,4.30
2018-07-26T23:46:47.796Z,4.33
2018-07-26T23:49:15.325Z,4.20
2018-07-26T23:51:42.884Z,4.30
2018-07-26T23:54:10.421Z,4.40
2018-07-26T23:56:39.911Z,4.37
2018-07-26T23:59:07.440Z,4.77
